Ellerslie, Maryland
Current Conditions -  °F | °C
As of 5:29 PM on Tuesday 21 Oct 2014 (Local Time) from KCBE Reporting Station
Scattered Clouds Scattered Clouds  
Wind Chill: 52°   Ceiling: Unl
Heat Index: 52°   Visibility: 10mi
Dew Point: 50°   Wind: 0mph
Humidity: 94%   Direction: NA
Pressure: 29.93"   Gusts: NA
Location:  39.72°N, 78.77°W
Report Text: KCBE 212129Z AUTO 00000KT 10SM SCT010 SCT016 SCT070 11/10 A2993 RMK AO1
Loading
Personal Weather Stations






























Interactive Weather Map New forecast layout! Learn more

10-Day Weather Forecast

Advertisements
Track Severe Weather on mobile